Time;durP1;ratioP1;P1;durP2;ratioP2;P2;SDS_P1;SDS_P2;PMS_P1;PMS_P2;Temp;Humidity;BMP_temperature;BMP_pressure;BME280_temperature;BME280_humidity;BME280_pressure;Samples;Min_cycle;Max_cycle;Signal;HPM_P1;HPM_P2
2023/03/13 00:00:25;;;;;;;8.63;2.43;;;10.50;99.90;;;;;;5095188;28;20285;-59
2023/03/13 00:02:51;;;;;;;8.70;2.57;;;10.40;99.90;;;;;;5095886;28;20200;-58
2023/03/13 00:05:18;;;;;;;7.47;2.70;;;10.40;99.90;;;;;;5095689;28;20680;-60
2023/03/13 00:07:45;;;;;;;8.87;2.70;;;10.30;99.90;;;;;;5096468;28;20325;-57
2023/03/13 00:10:13;;;;;;;7.27;2.33;;;10.30;99.90;;;;;;5095465;28;20234;-60
2023/03/13 00:12:40;;;;;;;11.47;2.83;;;10.20;99.90;;;;;;5095454;28;20580;-57
2023/03/13 00:15:08;;;;;;;11.37;2.93;;;10.20;99.90;;;;;;5095623;28;20201;-58
2023/03/13 00:17:34;;;;;;;8.87;2.60;;;10.20;99.90;;;;;;5095551;28;20208;-60
2023/03/13 00:20:01;;;;;;;8.00;2.80;;;10.30;99.90;;;;;;5095279;28;20597;-57
2023/03/13 00:22:28;;;;;;;11.17;2.77;;;10.20;99.90;;;;;;5095441;28;20208;-58
2023/03/13 00:24:54;;;;;;;9.43;2.87;;;10.30;99.90;;;;;;5095563;28;20257;-58
2023/03/13 00:27:23;;;;;;;10.90;2.83;;;10.30;99.90;;;;;;5094968;28;20214;-58
2023/03/13 00:29:49;;;;;;;7.00;2.87;;;10.30;99.90;;;;;;5094828;28;20700;-58
2023/03/13 00:32:16;;;;;;;6.40;2.47;;;10.30;99.90;;;;;;5094860;28;20278;-58
2023/03/13 00:34:43;;;;;;;9.40;2.40;;;10.40;99.90;;;;;;5094393;28;20207;-58
2023/03/13 00:37:09;;;;;;;8.07;2.53;;;10.50;99.90;;;;;;5094586;28;20204;-58
2023/03/13 00:39:36;;;;;;;9.63;2.40;;;10.50;99.90;;;;;;5094341;28;20726;-58
2023/03/13 00:42:03;;;;;;;10.37;2.67;;;10.50;99.90;;;;;;5094742;28;20200;-59
2023/03/13 00:44:32;;;;;;;9.53;2.20;;;10.60;99.90;;;;;;5094568;28;20261;-59
2023/03/13 00:46:59;;;;;;;10.33;2.60;;;10.60;99.90;;;;;;5095223;28;20215;-59
2023/03/13 00:49:26;;;;;;;12.37;3.00;;;10.60;99.90;;;;;;5094304;28;20232;-59
2023/03/13 00:51:52;;;;;;;10.03;3.17;;;10.50;99.90;;;;;;5094488;28;20228;-59
2023/03/13 00:54:19;;;;;;;8.83;2.80;;;10.60;99.90;;;;;;5094589;28;20215;-59
2023/03/13 00:56:46;;;;;;;6.43;2.47;;;10.50;99.90;;;;;;5094649;28;20265;-59
2023/03/13 00:59:13;;;;;;;9.23;3.07;;;10.40;99.90;;;;;;5094115;28;20243;-60
2023/03/13 01:01:41;;;;;;;7.00;2.30;;;10.40;99.90;;;;;;5094695;28;20200;-59
2023/03/13 01:04:10;;;;;;;8.87;3.07;;;10.50;99.90;;;;;;5094800;28;20204;-58
2023/03/13 01:06:41;;;;;;;8.60;2.87;;;10.50;99.90;;;;;;5094440;28;20212;-58
2023/03/13 01:09:10;;;;;;;10.97;2.73;;;10.50;99.90;;;;;;5093761;28;20794;-58
2023/03/13 01:11:38;;;;;;;11.40;2.37;;;10.50;99.90;;;;;;5094002;28;20208;-58
2023/03/13 01:14:07;;;;;;;11.83;2.47;;;10.50;99.90;;;;;;5093790;28;20212;-59
2023/03/13 01:16:35;;;;;;;10.63;2.73;;;10.60;99.90;;;;;;5094177;28;20205;-58
2023/03/13 01:19:05;;;;;;;9.37;2.47;;;10.60;99.90;;;;;;5093953;28;20232;-58
2023/03/13 01:21:32;;;;;;;8.77;2.37;;;10.70;99.90;;;;;;5093762;28;20215;-58
2023/03/13 01:23:58;;;;;;;8.37;2.20;;;10.80;99.90;;;;;;5094249;28;20232;-58
2023/03/13 01:26:26;;;;;;;12.00;2.30;;;10.80;99.90;;;;;;5094273;28;20204;-58
2023/03/13 01:28:53;;;;;;;7.13;2.30;;;10.90;99.90;;;;;;5093787;28;20246;-58
2023/03/13 01:31:22;;;;;;;7.23;2.20;;;11.00;99.90;;;;;;5093588;28;20315;-58
2023/03/13 01:33:50;;;;;;;10.40;2.37;;;11.10;99.90;;;;;;5093686;28;20659;-58
2023/03/13 01:36:19;;;;;;;9.73;2.60;;;11.10;99.90;;;;;;5093501;28;20586;-58
2023/03/13 01:38:48;;;;;;;8.30;2.27;;;11.20;99.90;;;;;;5093385;28;20742;-59
2023/03/13 01:41:15;;;;;;;10.90;2.50;;;11.20;99.90;;;;;;5093528;28;20204;-58
2023/03/13 01:43:42;;;;;;;6.33;2.10;;;11.30;99.90;;;;;;5093767;28;20216;-59
2023/03/13 01:46:16;;;;;;;9.70;2.70;;;11.30;99.90;;;;;;5093155;28;20204;-58
2023/03/13 01:48:48;;;;;;;7.30;2.00;;;11.30;99.90;;;;;;5093697;28;20255;-57
2023/03/13 01:51:21;;;;;;;10.00;2.23;;;11.30;99.90;;;;;;5093366;28;20200;-58
2023/03/13 01:53:51;;;;;;;7.87;2.00;;;11.40;99.90;;;;;;5093286;28;20239;-59
2023/03/13 01:56:22;;;;;;;7.43;2.20;;;11.50;99.90;;;;;;5093287;28;20295;-58
2023/03/13 01:58:50;;;;;;;8.43;2.23;;;11.50;99.90;;;;;;5093078;28;20734;-58
2023/03/13 02:01:18;;;;;;;8.27;2.20;;;11.50;99.90;;;;;;5093172;28;20574;-58
2023/03/13 02:03:46;;;;;;;6.63;1.90;;;11.60;99.90;;;;;;5093218;28;20201;-57
2023/03/13 02:06:13;;;;;;;7.90;2.00;;;11.60;99.90;;;;;;5093268;28;20215;-58
2023/03/13 02:08:48;;;;;;;7.90;2.20;;;11.70;99.90;;;;;;5093246;28;20232;-59
2023/03/13 02:11:23;;;;;;;6.37;2.00;;;11.70;99.90;;;;;;5092902;28;20207;-58
2023/03/13 02:13:50;;;;;;;6.00;2.00;;;11.80;99.90;;;;;;5093374;28;20227;-57
2023/03/13 02:16:19;;;;;;;7.07;1.93;;;11.80;99.90;;;;;;5093041;28;20212;-58
2023/03/13 02:18:46;;;;;;;5.57;1.80;;;11.80;99.90;;;;;;5093170;28;20289;-57
2023/03/13 02:21:20;;;;;;;6.63;2.23;;;11.90;99.90;;;;;;5092882;28;20684;-58
2023/03/13 02:23:57;;;;;;;9.97;1.80;;;11.90;99.90;;;;;;5092582;28;20208;-58
2023/03/13 02:26:25;;;;;;;5.50;1.57;;;12.00;99.90;;;;;;5092798;28;20265;-57
2023/03/13 02:28:52;;;;;;;8.90;1.90;;;12.10;99.90;;;;;;5092726;28;20885;-57
2023/03/13 02:31:18;;;;;;;5.90;1.83;;;12.10;99.90;;;;;;5092475;28;20230;-59
2023/03/13 02:33:45;;;;;;;7.10;1.57;;;12.10;99.90;;;;;;5093021;28;20618;-57
2023/03/13 02:36:14;;;;;;;5.50;1.50;;;12.10;99.90;;;;;;5093060;28;20235;-57
2023/03/13 02:38:48;;;;;;;4.00;1.70;;;12.10;99.90;;;;;;5093110;28;20623;-58
2023/03/13 02:41:16;;;;;;;4.10;1.50;;;12.10;99.90;;;;;;5092210;28;20679;-57
2023/03/13 02:43:44;;;;;;;6.53;1.83;;;12.20;99.90;;;;;;5092713;28;20203;-58
2023/03/13 02:46:16;;;;;;;7.53;1.90;;;12.30;99.90;;;;;;5092680;28;20648;-59
2023/03/13 02:48:44;;;;;;;3.07;1.30;;;12.40;99.90;;;;;;5093231;28;20227;-59
2023/03/13 02:51:17;;;;;;;7.30;1.80;;;12.30;99.90;;;;;;5092705;28;20207;-58
2023/03/13 02:53:44;;;;;;;4.90;1.37;;;12.40;99.90;;;;;;5092345;28;20220;-57
2023/03/13 02:56:13;;;;;;;6.63;1.57;;;12.50;99.90;;;;;;5092704;28;20208;-57
2023/03/13 02:58:41;;;;;;;4.93;1.60;;;12.50;99.90;;;;;;5094537;28;20236;-62
2023/03/13 03:01:09;;;;;;;4.23;1.57;;;12.50;99.90;;;;;;5098502;28;20208;-59
2023/03/13 03:03:36;;;;;;;6.17;1.33;;;12.60;99.90;;;;;;5098668;28;20241;-60
2023/03/13 03:06:05;;;;;;;5.40;1.60;;;12.50;99.90;;;;;;5099590;28;20209;-62
2023/03/13 03:08:32;;;;;;;4.13;1.47;;;12.60;99.90;;;;;;5099732;28;20247;-60
2023/03/13 03:10:59;;;;;;;3.30;1.23;;;12.60;99.90;;;;;;5099318;28;20226;-59
2023/03/13 03:13:26;;;;;;;5.17;1.60;;;12.50;99.90;;;;;;5099593;28;20478;-59
2023/03/13 03:15:52;;;;;;;5.40;1.30;;;12.60;99.90;;;;;;5098778;28;20208;-59
2023/03/13 03:18:20;;;;;;;6.10;1.37;;;12.60;99.90;;;;;;5097625;28;20253;-60
2023/03/13 03:20:47;;;;;;;4.70;1.60;;;12.60;99.90;;;;;;5097774;28;20579;-60
2023/03/13 03:23:14;;;;;;;4.33;1.40;;;12.60;99.90;;;;;;5097575;28;20200;-59
2023/03/13 03:25:41;;;;;;;3.30;1.30;;;12.70;99.90;;;;;;5098124;28;20204;-60
2023/03/13 03:28:07;;;;;;;3.90;1.43;;;12.70;99.90;;;;;;5097850;28;20213;-60
2023/03/13 03:30:34;;;;;;;4.50;1.40;;;12.80;99.90;;;;;;5097059;28;20212;-60
2023/03/13 03:33:03;;;;;;;7.17;1.20;;;12.80;99.90;;;;;;5097402;28;20273;-60
2023/03/13 03:35:32;;;;;;;3.03;1.10;;;12.80;99.90;;;;;;5097265;28;20245;-61
2023/03/13 03:37:59;;;;;;;4.73;1.67;;;12.80;99.90;;;;;;5097148;28;20686;-60
2023/03/13 03:40:26;;;;;;;4.90;1.37;;;12.80;99.90;;;;;;5097383;28;20224;-60
2023/03/13 03:42:53;;;;;;;5.37;1.50;;;12.90;99.90;;;;;;5097271;28;20208;-60
2023/03/13 03:45:20;;;;;;;5.97;1.40;;;12.90;99.90;;;;;;5098396;28;20212;-61
2023/03/13 03:47:47;;;;;;;4.20;1.10;;;12.80;99.90;;;;;;5096945;28;20200;-60
2023/03/13 03:50:13;;;;;;;5.07;1.20;;;12.80;99.90;;;;;;5096866;28;20227;-60
2023/03/13 03:52:41;;;;;;;6.23;1.73;;;12.90;99.90;;;;;;5098102;28;20247;-60
2023/03/13 03:55:09;;;;;;;4.03;1.70;;;12.80;99.90;;;;;;5097699;28;20671;-60
2023/03/13 03:57:36;;;;;;;2.30;0.93;;;12.90;99.90;;;;;;5097836;28;20204;-60
2023/03/13 04:00:04;;;;;;;4.73;1.17;;;12.90;99.90;;;;;;5097610;28;20235;-60
2023/03/13 04:02:30;;;;;;;3.50;1.30;;;12.90;99.90;;;;;;5097433;28;20613;-60
2023/03/13 04:04:57;;;;;;;5.00;1.87;;;12.80;99.90;;;;;;5098005;28;20215;-59
2023/03/13 04:07:25;;;;;;;5.40;1.33;;;12.90;99.90;;;;;;5097617;28;20212;-60
2023/03/13 04:09:53;;;;;;;6.00;2.37;;;12.90;99.90;;;;;;5096864;28;20235;-60
2023/03/13 04:12:19;;;;;;;5.17;1.60;;;12.90;99.90;;;;;;5097505;28;20212;-59
2023/03/13 04:14:46;;;;;;;2.43;1.00;;;12.90;99.90;;;;;;5096973;28;20204;-60
2023/03/13 04:17:13;;;;;;;4.13;1.20;;;12.80;99.90;;;;;;5096814;28;20212;-59
2023/03/13 04:19:40;;;;;;;4.40;1.73;;;12.80;99.90;;;;;;5097024;28;20224;-60
2023/03/13 04:22:06;;;;;;;5.43;1.73;;;12.80;99.90;;;;;;5096416;28;20201;-60
2023/03/13 04:24:33;;;;;;;4.93;1.60;;;12.90;99.90;;;;;;5097401;28;20216;-60
2023/03/13 04:27:02;;;;;;;2.17;0.97;;;13.00;99.90;;;;;;5097647;28;20209;-60
2023/03/13 04:29:29;;;;;;;3.00;1.20;;;13.00;99.90;;;;;;5096805;28;20228;-59
2023/03/13 04:31:56;;;;;;;1.83;1.20;;;13.00;99.90;;;;;;5097027;28;20208;-58
2023/03/13 04:34:22;;;;;;;2.97;0.90;;;13.00;99.90;;;;;;5097607;28;20224;-60
2023/03/13 04:36:49;;;;;;;2.77;0.90;;;13.10;99.90;;;;;;5097099;28;20200;-60
2023/03/13 04:39:16;;;;;;;2.10;0.90;;;13.10;99.90;;;;;;5096727;28;20224;-58
2023/03/13 04:41:43;;;;;;;2.73;0.90;;;13.10;99.90;;;;;;5096836;28;20208;-60
2023/03/13 04:44:11;;;;;;;3.50;1.53;;;13.20;99.90;;;;;;5096679;28;20610;-60
2023/03/13 04:46:37;;;;;;;3.00;0.70;;;13.20;99.90;;;;;;5097243;28;20201;-60
2023/03/13 04:49:04;;;;;;;3.97;1.10;;;13.20;99.90;;;;;;5096009;28;20225;-59
2023/03/13 04:51:31;;;;;;;1.07;0.80;;;13.30;99.90;;;;;;5096023;28;20215;-61
2023/03/13 04:53:58;;;;;;;0.77;0.60;;;13.40;99.90;;;;;;5096284;28;20231;-61
2023/03/13 04:56:26;;;;;;;1.33;0.63;;;13.50;99.90;;;;;;5096022;28;20204;-60
2023/03/13 04:58:53;;;;;;;2.60;0.77;;;13.60;99.90;;;;;;5095687;28;20232;-60
2023/03/13 05:01:21;;;;;;;1.07;0.60;;;13.60;99.90;;;;;;5095082;28;20217;-61
2023/03/13 05:03:48;;;;;;;4.30;0.93;;;13.60;99.90;;;;;;5095743;28;20207;-61
2023/03/13 05:06:14;;;;;;;1.87;0.77;;;13.70;99.90;;;;;;5095345;28;20211;-60
2023/03/13 05:08:41;;;;;;;1.50;0.80;;;13.70;99.90;;;;;;5095857;28;20220;-60
2023/03/13 05:11:08;;;;;;;3.33;1.10;;;13.70;99.90;;;;;;5095629;28;20230;-61
2023/03/13 05:13:35;;;;;;;2.47;0.90;;;13.70;99.90;;;;;;5096605;28;20231;-60
2023/03/13 05:16:02;;;;;;;1.37;0.70;;;13.70;99.90;;;;;;5095378;28;20208;-61
2023/03/13 05:18:30;;;;;;;2.20;0.90;;;13.80;99.90;;;;;;5095268;28;20216;-59
2023/03/13 05:20:57;;;;;;;2.10;0.40;;;13.90;99.90;;;;;;5094363;28;20291;-60
2023/03/13 05:23:24;;;;;;;2.33;0.80;;;13.90;99.90;;;;;;5094773;28;20208;-60
2023/03/13 05:25:50;;;;;;;2.67;0.80;;;13.80;99.90;;;;;;5095175;28;20205;-60
2023/03/13 05:28:17;;;;;;;2.27;0.60;;;13.90;99.90;;;;;;5094759;28;20219;-60
2023/03/13 05:30:44;;;;;;;1.10;0.50;;;13.80;99.90;;;;;;5094982;28;20257;-61
2023/03/13 05:33:10;;;;;;;1.77;0.73;;;13.90;99.90;;;;;;5095388;28;20219;-61
2023/03/13 05:35:38;;;;;;;7.17;1.30;;;13.90;99.90;;;;;;5095521;28;20200;-60
2023/03/13 05:38:05;;;;;;;4.93;0.73;;;13.90;99.90;;;;;;5095727;28;20201;-61
2023/03/13 05:40:32;;;;;;;2.63;0.70;;;14.00;99.90;;;;;;5095389;28;20203;-60
2023/03/13 05:42:59;;;;;;;3.87;2.20;;;13.90;99.90;;;;;;5096356;28;20212;-60
2023/03/13 05:45:26;;;;;;;1.77;0.70;;;13.90;99.90;;;;;;5095277;28;20231;-59
2023/03/13 05:47:52;;;;;;;1.43;0.77;;;13.80;99.90;;;;;;5095395;28;20204;-60
2023/03/13 05:50:20;;;;;;;0.93;0.60;;;13.80;99.90;;;;;;5094797;28;20805;-61
2023/03/13 05:52:48;;;;;;;2.20;1.13;;;13.90;99.90;;;;;;5095451;28;20196;-60
2023/03/13 05:55:15;;;;;;;1.97;0.83;;;13.90;99.90;;;;;;5095750;28;20214;-60
2023/03/13 05:57:45;;;;;;;2.73;0.90;;;13.90;99.90;;;;;;5095849;28;20212;-60
2023/03/13 06:00:13;;;;;;;0.80;0.50;;;13.90;99.90;;;;;;5095984;28;20236;-60
2023/03/13 06:02:40;;;;;;;1.33;0.77;;;13.90;99.90;;;;;;5095643;28;20208;-60
2023/03/13 06:05:08;;;;;;;1.17;0.67;;;13.90;99.90;;;;;;5095715;28;20200;-60
2023/03/13 06:07:35;;;;;;;1.27;0.40;;;14.00;99.90;;;;;;5095822;28;20304;-61
2023/03/13 06:10:04;;;;;;;2.03;0.80;;;14.00;99.90;;;;;;5094369;28;20235;-61
2023/03/13 06:12:31;;;;;;;2.10;0.57;;;14.10;99.90;;;;;;5095640;28;20220;-60
2023/03/13 06:14:58;;;;;;;2.63;1.10;;;14.20;99.90;;;;;;5094743;28;20234;-61
2023/03/13 06:17:25;;;;;;;1.20;0.60;;;14.20;99.90;;;;;;5094789;28;20215;-60
2023/03/13 06:19:52;;;;;;;1.60;0.60;;;14.20;99.90;;;;;;5094510;28;20252;-61
2023/03/13 06:22:18;;;;;;;0.90;0.60;;;14.10;99.90;;;;;;5095345;28;20253;-60
2023/03/13 06:24:47;;;;;;;3.27;0.80;;;14.20;99.90;;;;;;5094961;28;20196;-61
2023/03/13 06:27:16;;;;;;;2.30;0.80;;;14.20;99.90;;;;;;5094662;28;20552;-61
2023/03/13 06:29:42;;;;;;;2.97;0.70;;;14.30;99.90;;;;;;5094847;28;20226;-59
2023/03/13 06:32:09;;;;;;;1.33;0.73;;;14.40;99.90;;;;;;5094538;28;20201;-59
2023/03/13 06:34:36;;;;;;;1.00;0.57;;;14.50;99.90;;;;;;5094760;28;20224;-59
2023/03/13 06:37:04;;;;;;;1.40;0.60;;;14.60;99.90;;;;;;5096986;28;20235;-61
2023/03/13 06:39:30;;;;;;;0.70;0.50;;;14.60;99.90;;;;;;5096533;28;20242;-59
2023/03/13 06:41:58;;;;;;;3.77;0.97;;;14.70;99.90;;;;;;5095772;28;20211;-59
2023/03/13 06:44:26;;;;;;;1.63;0.80;;;14.80;99.90;;;;;;5095744;28;20652;-57
2023/03/13 06:46:53;;;;;;;1.27;0.63;;;14.80;99.90;;;;;;5094913;28;20212;-58
2023/03/13 06:49:20;;;;;;;1.30;0.40;;;14.80;99.90;;;;;;5095103;28;20341;-59
2023/03/13 06:51:47;;;;;;;1.13;0.43;;;14.90;99.90;;;;;;5094749;28;20224;-58
2023/03/13 06:54:14;;;;;;;1.80;0.67;;;15.00;99.90;;;;;;5095255;28;20228;-59
2023/03/13 06:56:41;;;;;;;0.63;0.50;;;15.00;99.90;;;;;;5094827;28;20208;-59
2023/03/13 06:59:08;;;;;;;1.07;0.50;;;15.00;99.90;;;;;;5094635;28;20232;-59
2023/03/13 07:01:36;;;;;;;0.60;0.30;;;15.00;99.90;;;;;;5095033;28;20200;-59
2023/03/13 07:04:03;;;;;;;1.40;0.40;;;15.10;99.90;;;;;;5094744;28;20287;-59
2023/03/13 07:06:30;;;;;;;1.00;0.60;;;15.10;99.90;;;;;;5095689;28;20211;-58
2023/03/13 07:08:56;;;;;;;2.40;0.30;;;15.10;99.90;;;;;;5094611;28;20235;-59
2023/03/13 07:11:24;;;;;;;1.10;0.30;;;15.10;99.90;;;;;;5094390;28;20699;-59
2023/03/13 07:13:55;;;;;;;0.70;0.20;;;15.10;99.90;;;;;;5094569;28;20252;-59
2023/03/13 07:16:22;;;;;;;2.03;0.70;;;15.10;99.90;;;;;;5094743;28;20204;-59
2023/03/13 07:18:51;;;;;;;1.63;0.60;;;15.10;99.90;;;;;;5095568;28;20310;-59
2023/03/13 07:21:17;;;;;;;0.67;0.40;;;15.10;99.90;;;;;;5094099;28;20218;-60
2023/03/13 07:23:44;;;;;;;0.87;0.57;;;15.10;99.90;;;;;;5094370;28;20204;-60
2023/03/13 07:26:14;;;;;;;0.60;0.30;;;15.10;99.90;;;;;;5094763;28;20680;-59
2023/03/13 07:28:41;;;;;;;1.07;0.40;;;15.20;99.90;;;;;;5094703;28;20232;-59
2023/03/13 07:31:11;;;;;;;2.87;1.80;;;15.10;99.90;;;;;;5095094;28;20204;-60
2023/03/13 07:33:38;;;;;;;0.50;0.37;;;15.20;99.90;;;;;;5095129;28;20204;-59
2023/03/13 07:36:07;;;;;;;0.60;0.40;;;15.20;99.90;;;;;;5095286;28;20231;-59
2023/03/13 07:38:34;;;;;;;2.77;0.50;;;15.20;99.90;;;;;;5094906;28;20731;-59
2023/03/13 07:41:01;;;;;;;2.60;0.70;;;15.20;99.90;;;;;;5094868;28;20204;-60
2023/03/13 07:43:30;;;;;;;1.40;0.73;;;15.20;99.90;;;;;;5094291;28;20203;-60
2023/03/13 07:45:58;;;;;;;1.40;0.50;;;15.30;99.90;;;;;;5097224;28;20668;-59
2023/03/13 07:48:29;;;;;;;2.33;0.40;;;15.40;99.90;;;;;;5097787;28;20235;-59
2023/03/13 07:50:56;;;;;;;0.90;0.37;;;15.50;99.90;;;;;;5098658;28;20283;-59
2023/03/13 07:53:25;;;;;;;2.10;0.63;;;15.50;99.90;;;;;;5099224;28;20212;-59
2023/03/13 07:55:53;;;;;;;2.13;0.93;;;15.50;99.90;;;;;;5099854;28;20211;-59
2023/03/13 07:58:20;;;;;;;1.17;0.57;;;15.60;99.90;;;;;;5097425;28;20215;-60
2023/03/13 08:00:48;;;;;;;1.23;0.40;;;15.60;99.90;;;;;;5097467;28;20675;-60
2023/03/13 08:03:14;;;;;;;0.60;0.43;;;15.60;99.90;;;;;;5097558;28;20215;-59
2023/03/13 08:05:41;;;;;;;1.03;0.53;;;15.60;99.90;;;;;;5097786;28;20210;-59
2023/03/13 08:08:08;;;;;;;1.33;0.50;;;15.50;99.90;;;;;;5096943;28;20392;-60
2023/03/13 08:10:37;;;;;;;1.00;0.40;;;15.50;99.90;;;;;;5097295;28;20253;-59
2023/03/13 08:13:04;;;;;;;0.75;0.47;;;15.50;99.90;;;;;;5097915;28;20204;-60
2023/03/13 08:15:30;;;;;;;1.43;0.83;;;15.60;99.90;;;;;;5097994;28;20730;-59
2023/03/13 08:17:58;;;;;;;1.03;0.50;;;15.70;99.90;;;;;;5098394;28;20212;-59
2023/03/13 08:20:25;;;;;;;1.77;0.47;;;15.90;99.90;;;;;;5098035;28;20231;-58
2023/03/13 08:22:52;;;;;;;0.52;0.30;;;15.90;99.90;;;;;;5096808;28;20216;-58
2023/03/13 08:25:18;;;;;;;0.93;0.38;;;16.10;99.90;;;;;;5096787;28;20200;-57
2023/03/13 08:27:46;;;;;;;0.30;0.28;;;16.30;99.90;;;;;;5096757;28;20604;-56
2023/03/13 08:30:14;;;;;;;1.52;0.60;;;16.60;99.90;;;;;;5096857;28;20228;-58
2023/03/13 08:32:41;;;;;;;1.60;0.65;;;17.00;99.90;;;;;;5096752;28;20200;-58
2023/03/13 08:35:08;;;;;;;1.33;0.82;;;17.30;99.90;;;;;;5095750;28;20224;-58
2023/03/13 08:37:35;;;;;;;1.52;0.50;;;17.70;99.90;;;;;;5095860;28;20211;-58
2023/03/13 08:40:08;;;;;;;1.80;0.50;;;18.00;99.90;;;;;;5096337;28;20228;-57
2023/03/13 08:42:36;;;;;;;0.88;0.50;;;18.40;99.90;;;;;;5096218;28;20204;-58
2023/03/13 08:45:05;;;;;;;1.92;0.55;;;18.60;99.90;;;;;;5096232;28;20200;-58
2023/03/13 08:47:32;;;;;;;1.63;0.50;;;18.90;99.90;;;;;;5096465;28;20273;-57
2023/03/13 08:49:58;;;;;;;1.27;0.50;;;19.10;99.90;;;;;;5095752;28;20224;-58
2023/03/13 08:52:26;;;;;;;2.22;0.60;;;19.30;99.90;;;;;;5095633;28;20690;-58
2023/03/13 08:54:53;;;;;;;2.35;0.52;;;19.40;99.90;;;;;;5095282;28;20224;-58
2023/03/13 08:57:20;;;;;;;0.85;0.50;;;19.40;99.90;;;;;;5094273;28;20286;-58
2023/03/13 08:59:47;;;;;;;1.92;0.40;;;19.40;99.90;;;;;;5096035;28;20738;-56
2023/03/13 09:02:18;;;;;;;0.85;0.60;;;19.50;99.90;;;;;;5094682;28;20211;-57
2023/03/13 09:04:46;;;;;;;2.67;0.90;;;19.60;99.90;;;;;;5094172;28;20202;-57
2023/03/13 09:07:12;;;;;;;3.10;0.85;;;19.60;99.90;;;;;;5094095;28;20291;-57
2023/03/13 09:09:39;;;;;;;1.50;0.70;;;19.60;99.90;;;;;;5094082;28;20236;-56
2023/03/13 09:12:07;;;;;;;1.42;0.65;;;19.60;99.90;;;;;;5094203;28;20211;-56
2023/03/13 09:14:34;;;;;;;1.30;0.60;;;19.60;99.90;;;;;;5094027;28;20281;-57
2023/03/13 09:17:00;;;;;;;2.65;0.70;;;19.60;99.90;;;;;;5093639;28;20219;-56
2023/03/13 09:19:29;;;;;;;1.85;0.65;;;19.60;99.90;;;;;;5093809;28;20228;-57
2023/03/13 09:21:56;;;;;;;3.70;0.75;;;19.60;99.90;;;;;;5093410;28;20667;-56
2023/03/13 09:24:22;;;;;;;1.13;0.75;;;19.50;99.90;;;;;;5094007;28;20603;-56
2023/03/13 09:26:49;;;;;;;2.50;0.77;;;19.50;99.90;;;;;;5093454;28;20212;-56
2023/03/13 09:29:16;;;;;;;1.63;1.00;;;19.50;99.90;;;;;;5093540;28;20231;-56
2023/03/13 09:31:43;;;;;;;8.65;1.15;;;19.50;99.90;;;;;;5093224;28;20204;-56
2023/03/13 09:34:10;;;;;;;5.70;1.20;;;19.40;99.90;;;;;;5082998;28;20208;-60
2023/03/13 09:36:38;;;;;;;5.05;1.00;;;19.30;99.90;;;;;;5072655;28;20209;-63
2023/03/13 09:39:04;;;;;;;4.15;0.73;;;19.30;99.90;;;;;;5092628;28;20220;-66
2023/03/13 09:41:38;;;;;;;4.43;1.95;;;19.30;99.90;;;;;;5092871;28;20639;-61
2023/03/13 09:44:11;;;;;;;1.70;1.00;;;19.60;99.90;;;;;;5092488;28;20208;-60
2023/03/13 09:46:44;;;;;;;4.15;1.13;;;19.80;99.90;;;;;;5092039;28;20221;-61
2023/03/13 09:49:17;;;;;;;6.78;1.10;;;19.90;99.90;;;;;;5093805;28;20279;-62
2023/03/13 09:51:53;;;;;;;4.53;1.23;;;19.80;99.90;;;;;;5092764;28;20329;-62
2023/03/13 09:54:27;;;;;;;2.38;0.98;;;19.60;99.90;;;;;;5092580;28;20758;-62
2023/03/13 09:56:58;;;;;;;3.30;1.23;;;19.30;99.90;;;;;;5092003;28;20230;-60
2023/03/13 09:59:34;;;;;;;1.92;0.98;;;19.30;99.90;;;;;;5091744;28;20232;-60
2023/03/13 10:02:05;;;;;;;3.22;1.08;;;19.20;99.90;;;;;;5091770;28;20204;-60
2023/03/13 10:04:39;;;;;;;2.58;1.35;;;19.40;99.90;;;;;;5091973;28;20200;-60
2023/03/13 10:07:11;;;;;;;1.48;0.80;;;19.60;99.90;;;;;;5091838;28;20203;-61
2023/03/13 10:09:39;;;;;;;3.08;0.70;;;19.90;99.90;;;;;;5091841;28;20228;-60
2023/03/13 10:12:13;;;;;;;2.30;1.10;;;20.20;99.90;;;;;;5091539;28;20204;-62
2023/03/13 10:14:44;;;;;;;1.60;0.52;;;20.50;99.90;;;;;;5093163;28;20766;-60
2023/03/13 10:17:20;;;;;;;4.38;1.40;;;20.80;99.90;;;;;;5092600;28;20690;-60
2023/03/13 10:19:54;;;;;;;1.40;0.55;;;21.10;99.90;;;;;;5092500;28;20219;-58
2023/03/13 10:22:26;;;;;;;1.88;1.10;;;21.10;99.90;;;;;;5092974;28;20580;-58
2023/03/13 10:24:58;;;;;;;2.28;1.13;;;20.90;99.90;;;;;;5092691;28;20207;-58
2023/03/13 10:27:25;;;;;;;2.05;0.98;;;20.60;99.90;;;;;;5092464;28;20208;-60
2023/03/13 10:29:51;;;;;;;3.25;1.08;;;20.40;99.90;;;;;;5092082;28;20235;-59
2023/03/13 10:32:19;;;;;;;1.92;0.90;;;20.20;99.90;;;;;;5092139;28;20789;-58
2023/03/13 10:34:53;;;;;;;1.60;0.90;;;20.10;99.90;;;;;;5092474;28;20243;-58
2023/03/13 10:37:24;;;;;;;1.88;0.82;;;20.10;99.90;;;;;;5092744;28;20212;-58
2023/03/13 10:39:52;;;;;;;4.05;1.10;;;20.30;99.90;;;;;;5092172;28;20303;-61
2023/03/13 10:42:23;;;;;;;2.70;1.00;;;20.40;99.90;;;;;;5092408;28;20200;-58
2023/03/13 10:44:49;;;;;;;2.60;0.95;;;20.60;99.90;;;;;;5092075;28;20208;-59
2023/03/13 10:47:16;;;;;;;3.88;1.05;;;20.60;99.90;;;;;;5092163;28;20204;-58
2023/03/13 10:49:49;;;;;;;4.07;1.17;;;20.40;99.90;;;;;;5092016;28;20734;-59
2023/03/13 10:52:30;;;;;;;2.58;1.38;;;20.30;99.90;;;;;;5092437;28;20628;-59
2023/03/13 10:55:00;;;;;;;2.20;1.00;;;20.30;99.90;;;;;;5092123;28;20224;-58
2023/03/13 10:57:30;;;;;;;4.55;1.20;;;20.30;99.90;;;;;;5092109;28;20212;-58
2023/03/13 10:59:58;;;;;;;2.45;0.80;;;20.40;99.90;;;;;;5091928;28;20239;-58
2023/03/13 11:02:31;;;;;;;2.58;1.08;;;20.60;99.90;;;;;;5092466;28;20203;-58
2023/03/13 11:04:58;;;;;;;5.65;1.65;;;20.80;99.90;;;;;;5092430;28;20224;-58
2023/03/13 11:07:34;;;;;;;3.90;0.98;;;21.20;99.90;;;;;;5091987;28;20204;-58
2023/03/13 11:10:03;;;;;;;4.70;1.20;;;21.30;99.90;;;;;;5092036;28;20263;-58
2023/03/13 11:12:35;;;;;;;4.40;1.20;;;21.50;99.90;;;;;;5092044;28;20258;-59
2023/03/13 11:15:13;;;;;;;2.38;1.00;;;21.50;99.90;;;;;;5092101;28;20231;-58
2023/03/13 11:17:41;;;;;;;3.83;1.40;;;21.40;99.90;;;;;;5092062;28;20208;-58
2023/03/13 11:20:21;;;;;;;5.20;1.38;;;21.20;99.90;;;;;;5093170;28;20228;-59
2023/03/13 11:22:55;;;;;;;2.50;1.17;;;21.10;99.90;;;;;;5096428;28;20199;-58
2023/03/13 11:25:32;;;;;;;3.05;1.05;;;20.90;99.90;;;;;;5095881;28;20624;-58
2023/03/13 11:28:21;;;;;;;1.42;1.00;;;20.90;99.90;;;;;;5096049;28;20246;-57
2023/03/13 11:31:06;;;;;;;2.75;1.30;;;21.00;99.90;;;;;;5095688;28;20208;-59
2023/03/13 11:33:46;;;;;;;2.10;1.23;;;21.00;99.90;;;;;;5096116;28;20204;-58
2023/03/13 11:36:21;;;;;;;2.00;1.02;;;21.00;99.90;;;;;;5095819;28;20223;-58
2023/03/13 11:38:53;;;;;;;6.65;2.25;;;21.00;99.90;;;;;;5095971;28;20231;-60
2023/03/13 11:41:30;;;;;;;1.55;1.10;;;20.90;99.90;;;;;;5095911;28;20204;-57
2023/03/13 11:44:19;;;;;;;4.63;1.50;;;20.60;99.90;;;;;;5095985;28;20208;-58
2023/03/13 11:46:58;;;;;;;1.88;1.20;;;20.50;99.90;;;;;;5095942;28;20204;-58
2023/03/13 11:49:34;;;;;;;3.05;1.10;;;20.60;99.90;;;;;;5095230;28;20230;-58
2023/03/13 11:52:11;;;;;;;2.70;1.35;;;20.70;99.90;;;;;;5095224;28;20740;-58
2023/03/13 11:54:54;;;;;;;1.33;1.00;;;20.70;99.90;;;;;;5095702;28;20215;-57
2023/03/13 11:57:28;;;;;;;3.05;1.00;;;20.80;99.90;;;;;;5095458;28;20211;-58
2023/03/13 12:00:14;;;;;;;2.33;1.17;;;21.00;99.90;;;;;;5094996;28;20235;-59
2023/03/13 12:02:48;;;;;;;30.42;27.10;;;21.40;99.90;;;;;;5095453;28;20223;-58
2023/03/13 12:05:18;;;;;;;6.50;4.35;;;21.50;99.90;;;;;;5095243;28;20204;-58
2023/03/13 12:07:50;;;;;;;2.92;1.23;;;21.60;99.90;;;;;;5094957;28;20200;-58
2023/03/13 12:10:26;;;;;;;2.90;1.23;;;21.70;99.90;;;;;;5094674;28;20229;-58
2023/03/13 12:13:00;;;;;;;1.52;1.13;;;21.80;99.90;;;;;;5095236;28;20269;-60
2023/03/13 12:15:32;;;;;;;3.00;1.30;;;21.90;99.90;;;;;;5095178;28;20219;-59
2023/03/13 12:18:02;;;;;;;3.00;1.15;;;22.00;99.90;;;;;;5094925;28;20204;-58
2023/03/13 12:20:38;;;;;;;1.85;0.90;;;22.40;99.90;;;;;;5094894;28;20232;-64
2023/03/13 12:23:16;;;;;;;3.13;1.10;;;22.80;99.90;;;;;;5095182;28;20207;-58
2023/03/13 12:25:50;;;;;;;2.63;1.05;;;23.10;99.90;;;;;;5095047;28;20208;-60
2023/03/13 12:28:25;;;;;;;6.15;1.75;;;23.20;99.90;;;;;;5094755;28;20211;-59
2023/03/13 12:31:00;;;;;;;1.25;1.00;;;23.30;99.90;;;;;;5094306;28;20682;-59
2023/03/13 12:33:30;;;;;;;1.88;0.93;;;23.40;99.90;;;;;;5094994;28;20208;-59
2023/03/13 12:36:06;;;;;;;1.33;0.88;;;23.50;99.90;;;;;;5094577;28;20612;-58
2023/03/13 12:38:38;;;;;;;3.40;1.38;;;23.80;99.90;;;;;;5094788;28;20234;-59
2023/03/13 12:41:18;;;;;;;6.07;1.20;;;23.80;99.90;;;;;;5094270;28;20233;-58
2023/03/13 12:43:48;;;;;;;3.45;0.95;;;23.90;99.90;;;;;;5094368;28;20222;-59
2023/03/13 12:46:35;;;;;;;3.05;1.00;;;24.00;99.90;;;;;;5094950;28;20207;-58
2023/03/13 12:49:21;;;;;;;4.22;1.15;;;24.00;99.60;;;;;;5094323;28;20224;-59
2023/03/13 12:52:03;;;;;;;2.15;0.98;;;24.20;99.40;;;;;;5094285;28;20211;-59
2023/03/13 12:54:53;;;;;;;1.85;0.93;;;24.20;98.40;;;;;;5094467;28;20587;-61